createdAt,value
2023-03-16T00:00:09.748Z,101086.44
2023-03-16T00:01:11.969Z,101094.31
2023-03-16T00:02:14.048Z,101096.03
2023-03-16T00:03:21.926Z,101097.78
2023-03-16T00:04:23.970Z,101075.03
2023-03-16T00:05:26.069Z,101084.63
2023-03-16T00:06:28.199Z,101070.66
2023-03-16T00:07:30.684Z,101060.19
2023-03-16T00:08:32.743Z,101066.31
2023-03-16T00:09:34.832Z,101059.31
2023-03-16T00:10:36.714Z,101062.81
2023-03-16T00:11:38.509Z,101047.03
2023-03-16T00:12:40.457Z,101066.25
2023-03-16T00:13:43.058Z,101068.03
2023-03-16T00:14:47.531Z,101062.75
2023-03-16T00:16:07.875Z,101080.19
2023-03-16T00:17:20.620Z,101095.88
2023-03-16T00:18:27.365Z,101103.69
2023-03-16T00:19:29.290Z,101107.16
2023-03-16T00:20:31.216Z,101094.94
2023-03-16T00:21:35.291Z,101101.91
2023-03-16T00:22:37.094Z,101105.38
2023-03-16T00:23:38.946Z,101099.25
2023-03-16T00:24:43.413Z,101094.00
2023-03-16T00:25:45.369Z,101080.91
2023-03-16T00:26:48.257Z,101080.91
2023-03-16T00:27:50.765Z,101090.50
2023-03-16T00:28:54.657Z,101089.66
2023-03-16T00:29:57.285Z,101102.75
2023-03-16T00:30:59.435Z,101107.97
2023-03-16T00:32:01.526Z,101114.97
2023-03-16T00:33:05.104Z,101111.50
2023-03-16T00:34:07.079Z,101113.25
2023-03-16T00:35:09.801Z,101111.50
2023-03-16T00:36:12.153Z,101115.88
2023-03-16T00:37:16.931Z,101115.00
2023-03-16T00:38:20.367Z,101117.59
2023-03-16T00:39:22.938Z,101138.59
2023-03-16T00:40:25.113Z,101135.09
2023-03-16T00:41:27.070Z,101133.31
2023-03-16T00:42:30.639Z,101132.44
2023-03-16T00:43:41.031Z,101124.59
2023-03-16T00:44:43.447Z,101126.38
2023-03-16T00:45:45.713Z,101130.72
2023-03-16T00:46:47.756Z,101128.09
2023-03-16T00:47:49.616Z,101134.19
2023-03-16T00:48:51.610Z,101132.44
2023-03-16T00:49:53.729Z,101130.69
2023-03-16T00:50:55.710Z,101131.56
2023-03-16T00:51:57.516Z,101127.22
2023-03-16T00:52:59.418Z,101129.78
2023-03-16T00:54:01.270Z,101127.19
2023-03-16T00:55:05.061Z,101129.78
2023-03-16T00:56:07.346Z,101126.31
2023-03-16T00:57:10.080Z,101134.16
2023-03-16T00:58:15.074Z,101125.44
2023-03-16T00:59:17.217Z,101124.56
2023-03-16T01:00:21.005Z,101128.06
2023-03-16T01:01:24.509Z,101125.41
2023-03-16T01:02:26.569Z,101117.56
2023-03-16T01:03:28.645Z,101112.34
2023-03-16T01:04:30.786Z,101120.16
2023-03-16T01:05:33.645Z,101121.06
2023-03-16T01:06:35.554Z,101119.31
2023-03-16T01:07:37.500Z,101116.69
2023-03-16T01:08:40.587Z,101114.91
2023-03-16T01:09:43.532Z,101117.53
2023-03-16T01:10:45.605Z,101121.91
2023-03-16T01:11:53.917Z,101112.31
2023-03-16T01:12:56.351Z,101125.41
2023-03-16T01:13:58.261Z,101126.31
2023-03-16T01:15:00.798Z,101113.22
2023-03-16T01:16:04.663Z,101128.88
2023-03-16T01:17:08.827Z,101130.63
2023-03-16T01:18:10.838Z,101124.53
2023-03-16T01:19:13.371Z,101116.66
2023-03-16T01:20:19.472Z,101127.13
2023-03-16T01:21:22.099Z,101137.63
2023-03-16T01:22:24.208Z,101130.59
2023-03-16T01:23:26.108Z,101135.84
2023-03-16T01:24:28.924Z,101121.88
2023-03-16T01:25:30.981Z,101126.22
2023-03-16T01:26:32.966Z,101120.09
2023-03-16T01:27:34.988Z,101120.09
2023-03-16T01:28:37.281Z,101114.84
2023-03-16T01:29:40.518Z,101116.63
2023-03-16T01:30:44.272Z,101117.47
2023-03-16T01:31:46.137Z,101112.22
2023-03-16T01:32:48.439Z,101119.22
2023-03-16T01:33:50.401Z,101115.75
2023-03-16T01:34:52.429Z,101111.34
2023-03-16T01:35:55.154Z,101113.97
2023-03-16T01:36:57.060Z,101114.84
2023-03-16T01:37:58.977Z,101109.59
2023-03-16T01:39:01.203Z,101118.34
2023-03-16T01:40:06.360Z,101112.22
2023-03-16T01:41:08.647Z,101108.75
2023-03-16T01:42:10.984Z,101117.50
2023-03-16T01:43:14.146Z,101112.25
2023-03-16T01:44:28.344Z,101118.38
2023-03-16T01:46:04.587Z,101114.06
2023-03-16T01:47:06.993Z,101105.28
2023-03-16T01:48:09.372Z,101095.69
2023-03-16T01:49:23.959Z,101101.78
2023-03-16T01:50:27.746Z,101110.53
2023-03-16T01:51:44.076Z,101106.16
2023-03-16T01:52:46.057Z,101100.03
2023-03-16T01:53:53.245Z,101098.31
2023-03-16T01:55:00.812Z,101099.16
2023-03-16T01:56:08.489Z,101100.03
2023-03-16T01:57:12.405Z,101099.16
2023-03-16T01:58:14.809Z,101091.31
2023-03-16T01:59:21.277Z,101087.81
2023-03-16T02:00:31.576Z,101086.94
2023-03-16T02:01:33.613Z,101097.44
2023-03-16T02:02:36.359Z,101073.88
2023-03-16T02:03:39.207Z,101068.66
2023-03-16T02:04:59.620Z,101073.91
2023-03-16T02:06:05.667Z,101066.91
2023-03-16T02:07:09.151Z,101070.41
2023-03-16T02:08:12.638Z,101070.38
2023-03-16T02:09:16.555Z,101071.25
2023-03-16T02:10:20.678Z,101070.34
2023-03-16T02:11:23.604Z,101074.72
2023-03-16T02:12:26.011Z,101074.72
2023-03-16T02:13:29.747Z,101079.94
2023-03-16T02:14:31.838Z,101075.56
2023-03-16T02:15:36.261Z,101084.34
2023-03-16T02:16:39.395Z,101078.19
2023-03-16T02:17:44.126Z,101073.88
2023-03-16T02:18:51.009Z,101076.47
2023-03-16T02:20:17.269Z,101074.78
2023-03-16T02:21:30.622Z,101065.13
2023-03-16T02:22:36.065Z,101068.63
2023-03-16T02:23:38.190Z,101073.84
2023-03-16T02:24:40.452Z,101081.72
2023-03-16T02:26:20.104Z,101082.63
2023-03-16T02:27:35.284Z,101093.06
2023-03-16T02:28:55.941Z,101094.81
2023-03-16T02:30:07.588Z,101095.69
2023-03-16T02:31:09.575Z,101101.78
2023-03-16T02:32:13.058Z,101099.16
2023-03-16T02:33:17.691Z,101101.78
2023-03-16T02:34:19.838Z,101102.66
2023-03-16T02:35:22.701Z,101102.66
2023-03-16T02:36:24.746Z,101099.16
2023-03-16T02:37:27.141Z,101101.78
2023-03-16T02:38:29.178Z,101107.91
2023-03-16T02:39:31.075Z,101107.91
2023-03-16T02:40:34.958Z,101120.13
2023-03-16T02:41:37.184Z,101120.13
2023-03-16T02:42:39.372Z,101120.13
2023-03-16T02:43:47.245Z,101121.91
2023-03-16T02:44:55.539Z,101132.38
2023-03-16T02:46:00.459Z,101123.66
2023-03-16T02:47:36.113Z,101126.31
2023-03-16T02:49:06.555Z,101125.41
2023-03-16T02:50:11.487Z,101117.50
2023-03-16T02:51:13.439Z,101119.25
2023-03-16T02:52:15.446Z,101120.13
2023-03-16T02:53:17.807Z,101116.63
2023-03-16T02:54:20.205Z,101116.63
2023-03-16T02:55:22.144Z,101122.69
2023-03-16T02:56:24.539Z,101121.84
2023-03-16T02:57:26.419Z,101127.94
2023-03-16T02:58:28.437Z,101115.72
2023-03-16T02:59:30.367Z,101118.34
2023-03-16T03:00:32.393Z,101122.69
2023-03-16T03:01:35.187Z,101118.34
2023-03-16T03:02:37.075Z,101124.44
2023-03-16T03:03:39.029Z,101131.44
2023-03-16T03:04:41.002Z,101134.97
2023-03-16T03:05:43.046Z,101140.16
2023-03-16T03:06:44.965Z,101138.41
2023-03-16T03:07:47.045Z,101138.41
2023-03-16T03:08:48.934Z,101135.78
2023-03-16T03:09:53.814Z,101136.69
2023-03-16T03:10:55.705Z,101143.69
2023-03-16T03:11:57.733Z,101139.28
2023-03-16T03:13:00.032Z,101137.53
2023-03-16T03:14:01.835Z,101134.91
2023-03-16T03:15:04.294Z,101139.28
2023-03-16T03:16:06.456Z,101131.44
2023-03-16T03:17:09.623Z,101136.69
2023-03-16T03:18:11.824Z,101127.94
2023-03-16T03:19:13.989Z,101122.69
2023-03-16T03:20:17.925Z,101127.91
2023-03-16T03:21:20.179Z,101139.28
2023-03-16T03:22:22.062Z,101134.00
2023-03-16T03:23:24.078Z,101134.00
2023-03-16T03:24:31.443Z,101128.78
2023-03-16T03:25:36.303Z,101138.38
2023-03-16T03:26:38.386Z,101132.25
2023-03-16T03:27:44.415Z,101138.38
2023-03-16T03:28:46.594Z,101123.50
2023-03-16T03:29:48.824Z,101126.16
2023-03-16T03:30:51.699Z,101130.53
2023-03-16T03:31:53.708Z,101127.91
2023-03-16T03:32:55.584Z,101129.66
2023-03-16T03:33:57.484Z,101126.19
2023-03-16T03:34:59.440Z,101128.81
2023-03-16T03:36:02.391Z,101120.03
2023-03-16T03:37:04.320Z,101119.22
2023-03-16T03:38:08.200Z,101126.19
2023-03-16T03:39:10.159Z,101121.81
2023-03-16T03:40:14.365Z,101111.34
2023-03-16T03:41:16.078Z,101116.63
2023-03-16T03:42:18.176Z,101114.84
2023-03-16T03:43:21.184Z,101127.94
2023-03-16T03:44:24.174Z,101127.06
2023-03-16T03:45:26.375Z,101127.03
2023-03-16T03:46:28.493Z,101129.66
2023-03-16T03:47:30.968Z,101121.81
2023-03-16T03:48:33.788Z,101128.81
2023-03-16T03:49:35.640Z,101134.03
2023-03-16T03:50:38.858Z,101126.22
2023-03-16T03:51:41.401Z,101122.75
2023-03-16T03:52:43.292Z,101113.19
2023-03-16T03:53:45.145Z,101115.78
2023-03-16T03:54:47.027Z,101107.06
2023-03-16T03:55:49.994Z,101114.06
2023-03-16T03:56:52.528Z,101110.59
2023-03-16T03:57:54.505Z,101114.97
2023-03-16T03:58:56.292Z,101111.50
2023-03-16T03:59:58.170Z,101122.00
2023-03-16T04:01:00.004Z,101127.28
2023-03-16T04:02:02.006Z,101124.69
2023-03-16T04:03:04.342Z,101127.38
2023-03-16T04:04:06.315Z,101125.72
2023-03-16T04:05:09.016Z,101123.97
2023-03-16T04:06:11.252Z,101126.66
2023-03-16T04:07:13.165Z,101130.16
2023-03-16T04:08:15.138Z,101134.53
2023-03-16T04:09:17.069Z,101125.97
2023-03-16T04:10:19.186Z,101134.91
2023-03-16T04:11:21.585Z,101125.53
2023-03-16T04:12:23.593Z,101122.16
2023-03-16T04:13:25.578Z,101118.72
2023-03-16T04:14:28.872Z,101115.22
2023-03-16T04:15:33.119Z,101121.41
2023-03-16T04:16:35.099Z,101116.22
2023-03-16T04:17:37.009Z,101117.94
2023-03-16T04:18:38.913Z,101118.88
2023-03-16T04:19:40.833Z,101106.63
2023-03-16T04:20:42.791Z,101113.63
2023-03-16T04:21:44.644Z,101122.38
2023-03-16T04:22:47.585Z,101121.47
2023-03-16T04:23:54.403Z,101115.28
2023-03-16T04:24:56.438Z,101125.78
2023-03-16T04:25:58.329Z,101121.34
2023-03-16T04:27:02.912Z,101123.13
2023-03-16T04:28:05.164Z,101117.88
2023-03-16T04:29:07.126Z,101127.50
2023-03-16T04:30:12.628Z,101126.59
2023-03-16T04:31:14.675Z,101112.53
2023-03-16T04:32:16.751Z,101126.50
2023-03-16T04:33:18.619Z,101119.50
2023-03-16T04:34:25.220Z,101115.09
2023-03-16T04:35:27.549Z,101115.06
2023-03-16T04:36:29.395Z,101108.09
2023-03-16T04:37:31.409Z,101109.78
2023-03-16T04:38:34.400Z,101110.63
2023-03-16T04:39:36.346Z,101114.09
2023-03-16T04:40:38.452Z,101108.84
2023-03-16T04:41:40.320Z,101111.44
2023-03-16T04:42:42.537Z,101109.69
2023-03-16T04:43:44.856Z,101114.06
2023-03-16T04:44:46.675Z,101124.53
2023-03-16T04:45:48.919Z,101121.06
2023-03-16T04:46:50.801Z,101118.47
2023-03-16T04:47:52.885Z,101126.38
2023-03-16T04:48:58.494Z,101114.16
2023-03-16T04:50:04.303Z,101119.44
2023-03-16T04:51:06.418Z,101115.09
2023-03-16T04:52:09.045Z,101105.53
2023-03-16T04:53:11.103Z,101114.34
2023-03-16T04:54:13.046Z,101109.16
2023-03-16T04:55:14.911Z,101110.00
2023-03-16T04:56:18.466Z,101111.75
2023-03-16T04:57:20.301Z,101114.34
2023-03-16T04:58:22.899Z,101128.34
2023-03-16T04:59:24.762Z,101119.59
2023-03-16T05:00:27.078Z,101107.38
2023-03-16T05:01:29.247Z,101112.63
2023-03-16T05:02:32.271Z,101101.28
2023-03-16T05:03:34.934Z,101102.16
2023-03-16T05:04:37.329Z,101100.38
2023-03-16T05:05:40.014Z,101102.16
2023-03-16T05:06:42.209Z,101101.28
2023-03-16T05:07:45.111Z,101100.38
2023-03-16T05:08:46.965Z,101099.53
2023-03-16T05:09:48.888Z,101095.13
2023-03-16T05:10:51.126Z,101096.03
2023-03-16T05:11:53.061Z,101094.28
2023-03-16T05:12:54.897Z,101099.50
2023-03-16T05:13:56.900Z,101103.91
2023-03-16T05:14:58.793Z,101103.88
2023-03-16T05:16:01.994Z,101110.88
2023-03-16T05:17:04.902Z,101116.13
2023-03-16T05:18:06.689Z,101119.66
2023-03-16T05:19:08.590Z,101115.28
2023-03-16T05:20:15.839Z,101116.19
2023-03-16T05:21:18.142Z,101114.47
2023-03-16T05:22:20.172Z,101109.22
2023-03-16T05:23:23.364Z,101114.47
2023-03-16T05:24:25.346Z,101116.22
2023-03-16T05:25:27.233Z,101100.50
2023-03-16T05:26:29.087Z,101111.00
2023-03-16T05:27:31.144Z,101110.13
2023-03-16T05:28:33.155Z,101114.47
2023-03-16T05:29:35.096Z,101104.03
2023-03-16T05:30:37.079Z,101104.91
2023-03-16T05:31:39.090Z,101106.66
2023-03-16T05:32:41.142Z,101101.44
2023-03-16T05:33:43.055Z,101098.81
2023-03-16T05:34:45.012Z,101104.09
2023-03-16T05:35:46.857Z,101093.63
2023-03-16T05:36:48.902Z,101103.31
2023-03-16T05:37:50.873Z,101101.59
2023-03-16T05:38:52.836Z,101102.53
2023-03-16T05:39:54.785Z,101107.88
2023-03-16T05:41:02.229Z,101105.28
2023-03-16T05:42:06.127Z,101104.41
2023-03-16T05:43:08.429Z,101097.41
2023-03-16T05:44:10.872Z,101107.00
2023-03-16T05:45:14.939Z,101101.75
2023-03-16T05:46:18.459Z,101100.91
2023-03-16T05:47:22.329Z,101097.41
2023-03-16T05:48:27.290Z,101099.13
2023-03-16T05:49:29.211Z,101104.38
2023-03-16T05:50:31.104Z,101102.63
2023-03-16T05:51:33.043Z,101099.13
2023-03-16T05:52:35.646Z,101103.53
2023-03-16T05:53:37.464Z,101100.94
2023-03-16T05:54:40.062Z,101103.59
2023-03-16T05:55:41.842Z,101101.81
2023-03-16T05:56:43.802Z,101096.56
2023-03-16T05:57:45.944Z,101099.16
2023-03-16T05:58:47.768Z,101103.56
2023-03-16T05:59:50.658Z,101092.16
2023-03-16T06:00:52.520Z,101094.78
2023-03-16T06:01:54.349Z,101091.28
2023-03-16T06:02:56.262Z,101089.53
2023-03-16T06:03:58.208Z,101086.91
2023-03-16T06:05:00.337Z,101093.88
2023-03-16T06:06:02.250Z,101085.13
2023-03-16T06:07:04.721Z,101081.63
2023-03-16T06:08:06.700Z,101078.97
2023-03-16T06:09:09.535Z,101079.84
2023-03-16T06:10:12.593Z,101075.47
2023-03-16T06:11:16.425Z,101079.84
2023-03-16T06:12:18.389Z,101063.22
2023-03-16T06:13:20.259Z,101077.22
2023-03-16T06:14:23.317Z,101074.59
2023-03-16T06:15:26.672Z,101075.50
2023-03-16T06:16:29.208Z,101072.88
2023-03-16T06:17:31.069Z,101079.88
2023-03-16T06:18:35.635Z,101081.63
2023-03-16T06:19:37.686Z,101071.97
2023-03-16T06:20:39.860Z,101072.88
2023-03-16T06:21:41.768Z,101083.38
2023-03-16T06:22:44.253Z,101074.63
2023-03-16T06:23:46.139Z,101071.13
2023-03-16T06:24:48.110Z,101078.13
2023-03-16T06:25:51.203Z,101069.38
2023-03-16T06:26:53.427Z,101064.09
2023-03-16T06:27:55.558Z,101070.28
2023-03-16T06:28:57.367Z,101058.84
2023-03-16T06:29:59.738Z,101067.63
2023-03-16T06:31:01.816Z,101058.84
2023-03-16T06:32:04.150Z,101065.88
2023-03-16T06:33:06.252Z,101060.63
2023-03-16T06:34:08.213Z,101053.59
2023-03-16T06:35:10.540Z,101062.38
2023-03-16T06:36:12.526Z,101059.75
2023-03-16T06:37:14.640Z,101050.97
2023-03-16T06:38:17.288Z,101065.03
2023-03-16T06:39:19.118Z,101060.63
2023-03-16T06:40:21.172Z,101058.91
2023-03-16T06:41:23.002Z,101056.25
2023-03-16T06:42:24.885Z,101051.00
2023-03-16T06:43:26.797Z,101051.88
2023-03-16T06:44:28.730Z,101067.66
2023-03-16T06:45:30.786Z,101064.16
2023-03-16T06:46:33.952Z,101065.91
2023-03-16T06:47:35.798Z,101053.63
2023-03-16T06:48:37.661Z,101044.84
2023-03-16T06:49:39.742Z,101052.75
2023-03-16T06:50:41.548Z,101045.72
2023-03-16T06:51:43.432Z,101050.97
2023-03-16T06:52:45.415Z,101046.59
2023-03-16T06:53:47.432Z,101052.72
2023-03-16T06:54:49.435Z,101046.63
2023-03-16T06:55:51.515Z,101045.72
2023-03-16T06:56:53.410Z,101044.84
2023-03-16T06:57:55.847Z,101051.88
2023-03-16T06:58:58.295Z,101047.47
2023-03-16T07:00:00.148Z,101057.13
2023-03-16T07:01:03.819Z,101048.34
2023-03-16T07:02:07.039Z,101043.97
2023-03-16T07:03:08.985Z,101043.09
2023-03-16T07:04:12.868Z,101039.56
2023-03-16T07:05:14.932Z,101031.63
2023-03-16T07:06:17.182Z,101037.81
2023-03-16T07:07:19.620Z,101030.81
2023-03-16T07:08:21.898Z,101030.81
2023-03-16T07:09:24.174Z,101022.03
2023-03-16T07:10:25.978Z,101026.41
2023-03-16T07:11:27.951Z,101028.19
2023-03-16T07:12:29.821Z,101018.53
2023-03-16T07:13:31.769Z,101019.41
2023-03-16T07:14:33.782Z,101025.56
2023-03-16T07:15:36.039Z,101015.91
2023-03-16T07:16:38.086Z,101022.06
2023-03-16T07:17:40.669Z,101024.66
2023-03-16T07:18:44.578Z,101024.66
2023-03-16T07:19:46.476Z,101021.16
2023-03-16T07:20:48.366Z,101018.50
2023-03-16T07:21:50.243Z,101019.38
2023-03-16T07:22:52.515Z,101013.25
2023-03-16T07:23:55.956Z,101019.38
2023-03-16T07:24:58.216Z,101026.38
2023-03-16T07:26:00.949Z,101013.22
2023-03-16T07:27:02.739Z,101012.34
2023-03-16T07:28:04.901Z,101019.38
2023-03-16T07:29:07.311Z,101017.59
2023-03-16T07:30:12.331Z,101013.19
2023-03-16T07:31:15.013Z,101012.31
2023-03-16T07:32:16.945Z,101015.84
2023-03-16T07:33:18.903Z,101014.97
2023-03-16T07:34:21.444Z,101011.44
2023-03-16T07:35:24.331Z,101012.31
2023-03-16T07:36:26.581Z,101014.91
2023-03-16T07:37:28.450Z,101015.78
2023-03-16T07:38:32.523Z,101013.13
2023-03-16T07:39:34.437Z,100991.97
2023-03-16T07:40:36.216Z,101001.66
2023-03-16T07:41:38.168Z,101004.28
2023-03-16T07:42:40.466Z,101000.75
2023-03-16T07:43:42.449Z,101000.75
2023-03-16T07:44:44.308Z,101009.53
2023-03-16T07:45:52.572Z,101006.88
2023-03-16T07:46:54.561Z,101013.94
2023-03-16T07:47:56.575Z,101014.81
2023-03-16T07:48:58.493Z,101001.63
2023-03-16T07:50:01.467Z,101011.31
2023-03-16T07:51:03.409Z,101003.38
2023-03-16T07:52:05.441Z,101016.56
2023-03-16T07:53:07.618Z,101009.47
2023-03-16T07:54:09.558Z,100999.88
2023-03-16T07:55:12.095Z,100993.69
2023-03-16T07:56:14.652Z,100988.50
2023-03-16T07:57:16.487Z,101005.22
2023-03-16T07:58:18.476Z,100990.31
2023-03-16T07:59:21.560Z,100999.09
2023-03-16T08:00:24.889Z,100998.22
2023-03-16T08:01:26.692Z,100986.84
2023-03-16T08:02:28.630Z,100990.34
2023-03-16T08:03:32.195Z,100990.34
2023-03-16T08:04:34.561Z,100986.84
2023-03-16T08:05:36.549Z,100988.59
2023-03-16T08:06:38.554Z,100990.31
2023-03-16T08:07:41.417Z,100985.03
2023-03-16T08:08:43.386Z,100987.66
2023-03-16T08:09:45.456Z,100985.84
2023-03-16T08:10:49.260Z,100984.94
2023-03-16T08:11:51.171Z,100980.50
2023-03-16T08:12:53.051Z,100983.13
2023-03-16T08:13:56.629Z,100985.72
2023-03-16T08:14:58.613Z,100983.97
2023-03-16T08:16:02.259Z,100978.66
2023-03-16T08:17:05.935Z,100967.22
2023-03-16T08:18:08.042Z,100983.00
2023-03-16T08:19:11.703Z,100969.84
2023-03-16T08:20:15.085Z,100966.25
2023-03-16T08:21:18.120Z,100967.16
2023-03-16T08:22:21.084Z,100977.75
2023-03-16T08:23:24.437Z,100984.78
2023-03-16T08:24:27.184Z,100976.84
2023-03-16T08:25:29.196Z,100976.84
2023-03-16T08:26:31.035Z,100981.22
2023-03-16T08:27:33.437Z,100975.94
2023-03-16T08:28:36.667Z,100967.16
2023-03-16T08:29:38.545Z,100977.69
2023-03-16T08:30:51.811Z,100963.63
2023-03-16T08:31:57.793Z,100972.44
2023-03-16T08:33:01.667Z,100964.47
2023-03-16T08:34:04.258Z,100963.59
2023-03-16T08:35:07.982Z,100964.47
2023-03-16T08:36:11.965Z,100967.94
2023-03-16T08:37:14.882Z,100973.22
2023-03-16T08:38:16.697Z,100968.81
2023-03-16T08:39:18.871Z,100953.94
2023-03-16T08:40:22.699Z,100960.03
2023-03-16T08:41:24.756Z,100935.44
2023-03-16T08:42:28.961Z,100946.03
2023-03-16T08:43:30.956Z,100948.69
2023-03-16T08:44:33.189Z,100952.22
2023-03-16T08:45:35.125Z,100949.63
2023-03-16T08:46:37.134Z,100955.81
2023-03-16T08:47:40.602Z,100952.34
2023-03-16T08:48:43.292Z,100956.72
2023-03-16T08:49:45.149Z,100956.72
2023-03-16T08:50:47.232Z,100950.59
2023-03-16T08:51:49.693Z,100948.81
2023-03-16T08:52:51.535Z,100951.47
2023-03-16T08:53:54.245Z,100947.09
2023-03-16T08:55:03.478Z,100942.75
2023-03-16T08:56:12.508Z,100945.41
2023-03-16T08:57:14.361Z,100942.75
2023-03-16T08:58:16.149Z,100948.88
2023-03-16T08:59:29.069Z,100947.13
2023-03-16T09:00:31.616Z,100939.19
2023-03-16T09:01:34.269Z,100943.53
2023-03-16T09:02:38.793Z,100935.63
2023-03-16T09:03:42.592Z,100942.66
2023-03-16T09:04:44.611Z,100934.75
2023-03-16T09:05:47.052Z,100937.44
2023-03-16T09:07:05.685Z,100940.13
2023-03-16T09:08:10.104Z,100940.16
2023-03-16T09:09:11.890Z,100927.88
2023-03-16T09:10:16.506Z,100927.91
2023-03-16T09:11:19.457Z,100928.78
2023-03-16T09:12:22.432Z,100927.97
2023-03-16T09:13:24.659Z,100920.94
2023-03-16T09:14:26.605Z,100926.19
2023-03-16T09:15:29.365Z,100931.41
2023-03-16T09:16:31.272Z,100923.44
2023-03-16T09:17:33.628Z,100924.25
2023-03-16T09:18:36.393Z,100913.69
2023-03-16T09:19:50.394Z,100927.69
2023-03-16T09:21:00.148Z,100927.63
2023-03-16T09:22:02.141Z,100919.63
2023-03-16T09:23:04.454Z,100916.91
2023-03-16T09:24:08.976Z,100922.13
2023-03-16T09:25:11.381Z,100921.22
2023-03-16T09:26:15.414Z,100915.88
2023-03-16T09:27:17.677Z,100911.31
2023-03-16T09:28:22.029Z,100914.00
2023-03-16T09:29:24.647Z,100911.38
2023-03-16T09:30:28.443Z,100908.72
2023-03-16T09:31:30.728Z,100913.97
2023-03-16T09:32:33.783Z,100914.84
2023-03-16T09:33:37.093Z,100913.97
2023-03-16T09:34:39.364Z,100919.28
2023-03-16T09:35:41.514Z,100917.56
2023-03-16T09:36:43.391Z,100905.31
2023-03-16T09:38:01.076Z,100929.16
2023-03-16T09:39:06.574Z,100926.56
2023-03-16T09:40:19.316Z,100919.59
2023-03-16T09:41:36.488Z,100930.09
2023-03-16T09:42:48.508Z,100930.16
2023-03-16T09:43:50.257Z,100928.44
2023-03-16T09:45:21.409Z,100934.53
2023-03-16T09:46:36.866Z,100925.81
2023-03-16T09:47:40.762Z,100925.78
2023-03-16T09:48:42.545Z,100924.84
2023-03-16T09:49:48.008Z,100919.50
2023-03-16T09:50:51.259Z,100917.72
2023-03-16T09:52:05.452Z,100907.09
2023-03-16T09:53:19.230Z,100907.06
2023-03-16T09:54:33.394Z,100912.25
2023-03-16T09:55:38.027Z,100903.38
2023-03-16T09:56:42.642Z,100915.66
2023-03-16T09:57:46.576Z,100914.88
2023-03-16T09:58:48.496Z,100919.28
2023-03-16T09:59:50.293Z,100919.28
2023-03-16T10:01:24.602Z,100915.75
2023-03-16T10:02:48.602Z,100917.53
2023-03-16T10:04:18.427Z,100908.84
2023-03-16T10:05:24.620Z,100907.16
2023-03-16T10:06:27.445Z,100903.72
2023-03-16T10:08:09.088Z,100903.75
2023-03-16T10:09:11.388Z,100906.38
2023-03-16T10:10:23.962Z,100899.41
2023-03-16T10:11:34.328Z,100897.66
2023-03-16T10:12:42.104Z,100899.44
2023-03-16T10:14:02.781Z,100895.97
2023-03-16T10:15:15.277Z,100887.19
2023-03-16T10:16:21.548Z,100895.97
2023-03-16T10:17:33.355Z,100888.09
2023-03-16T10:19:19.833Z,100896.94
2023-03-16T10:20:24.144Z,100894.31
2023-03-16T10:21:26.089Z,100887.31
2023-03-16T10:22:36.805Z,100881.13
2023-03-16T10:23:40.952Z,100867.06
2023-03-16T10:24:47.639Z,100875.81
2023-03-16T10:25:51.959Z,100887.28
2023-03-16T10:27:00.457Z,100880.25
2023-03-16T10:28:02.521Z,100867.97
2023-03-16T10:29:10.628Z,100877.59
2023-03-16T10:30:24.683Z,100868.81
2023-03-16T10:31:28.477Z,100889.88
2023-03-16T10:32:35.734Z,100874.06
2023-03-16T10:33:38.385Z,100883.69
2023-03-16T10:34:40.881Z,100878.41
2023-03-16T10:35:57.999Z,100878.34
2023-03-16T10:37:03.123Z,100878.34
2023-03-16T10:38:07.812Z,100875.69
2023-03-16T10:39:13.253Z,100865.13
2023-03-16T10:40:16.374Z,100859.94
2023-03-16T10:41:18.276Z,100872.25
2023-03-16T10:42:21.479Z,100871.38
2023-03-16T10:43:24.485Z,100870.50
2023-03-16T10:44:28.718Z,100852.91
2023-03-16T10:45:34.462Z,100856.41
2023-03-16T10:46:43.013Z,100848.47
2023-03-16T10:47:44.932Z,100832.69
2023-03-16T10:49:01.547Z,100854.66
2023-03-16T10:50:16.902Z,100853.78
2023-03-16T10:51:26.208Z,100844.09
2023-03-16T10:52:35.330Z,100839.66
2023-03-16T10:53:42.736Z,100840.53
2023-03-16T10:54:53.030Z,100838.81
2023-03-16T10:56:02.161Z,100835.28
2023-03-16T10:57:34.113Z,100837.00
2023-03-16T10:58:43.293Z,100835.28
2023-03-16T10:59:49.748Z,100828.19
2023-03-16T11:00:51.993Z,100830.91
2023-03-16T11:01:54.672Z,100834.41
2023-03-16T11:02:59.971Z,100831.81
2023-03-16T11:04:02.723Z,100825.72
2023-03-16T11:05:17.828Z,100834.47
2023-03-16T11:06:24.935Z,100822.19
2023-03-16T11:07:27.809Z,100830.97
2023-03-16T11:08:35.629Z,100835.41
2023-03-16T11:09:37.444Z,100825.72
2023-03-16T11:10:55.031Z,100816.97
2023-03-16T11:11:58.007Z,100823.13
2023-03-16T11:13:20.989Z,100826.69
2023-03-16T11:14:26.012Z,100824.00
2023-03-16T11:15:37.095Z,100816.13
2023-03-16T11:16:57.137Z,100820.53
2023-03-16T11:17:59.464Z,100817.91
2023-03-16T11:19:19.009Z,100815.31
2023-03-16T11:20:28.681Z,100824.97
2023-03-16T11:21:51.666Z,100822.38
2023-03-16T11:22:53.510Z,100829.44
2023-03-16T11:23:57.101Z,100824.19
2023-03-16T11:25:41.501Z,100826.75
2023-03-16T11:26:45.606Z,100826.81
2023-03-16T11:28:06.586Z,100826.84
2023-03-16T11:29:27.668Z,100827.72
2023-03-16T11:30:35.417Z,100820.69
2023-03-16T11:31:54.097Z,100825.09
2023-03-16T11:32:56.049Z,100815.44
2023-03-16T11:33:58.141Z,100810.19
2023-03-16T11:35:00.400Z,100806.66
2023-03-16T11:36:29.980Z,100799.66
2023-03-16T11:38:09.568Z,100811.97
2023-03-16T11:39:30.814Z,100800.56
2023-03-16T11:40:44.174Z,100811.97
2023-03-16T11:41:54.865Z,100800.56
2023-03-16T11:43:21.228Z,100797.03
2023-03-16T11:44:38.777Z,100793.53
2023-03-16T11:46:02.920Z,100793.56
2023-03-16T11:47:16.826Z,100801.50
2023-03-16T11:48:32.312Z,100793.63
2023-03-16T11:49:44.633Z,100799.84
2023-03-16T11:50:49.890Z,100793.72
2023-03-16T11:52:03.966Z,100808.66
2023-03-16T11:53:25.010Z,100806.91
2023-03-16T11:54:55.701Z,100803.38
2023-03-16T11:55:57.536Z,100800.75
2023-03-16T11:57:27.421Z,100799.00
2023-03-16T11:58:51.030Z,100794.56
2023-03-16T12:00:01.480Z,100789.31
2023-03-16T12:01:13.355Z,100786.69
2023-03-16T12:02:33.578Z,100789.25
2023-03-16T12:04:05.818Z,100788.34
2023-03-16T12:05:31.236Z,100789.22
2023-03-16T12:06:45.416Z,100776.09
2023-03-16T12:08:13.021Z,100775.22
2023-03-16T12:09:37.804Z,100770.00
2023-03-16T12:11:07.944Z,100763.81
2023-03-16T12:12:34.641Z,100751.56
2023-03-16T12:14:12.219Z,100760.38
2023-03-16T12:15:36.192Z,100757.72
2023-03-16T12:16:52.139Z,100750.72
2023-03-16T12:17:59.500Z,100749.00
2023-03-16T12:19:12.232Z,100743.78
2023-03-16T12:20:23.471Z,100748.19
2023-03-16T12:21:32.434Z,100751.72
2023-03-16T12:22:44.538Z,100742.06
2023-03-16T12:23:56.814Z,100737.69